Time;durP1;ratioP1;P1;durP2;ratioP2;P2;SDS_P1;SDS_P2;PMS_P1;PMS_P2;Temp;Humidity;BMP_temperature;BMP_pressure;BME280_temperature;BME280_humidity;BME280_pressure;Samples;Min_cycle;Max_cycle;Signal;HPM_P1;HPM_P2
2023/03/03 00:01:28;;;;;;;8.65;4.43;;;5.50;99.90;;;;;;5079627;28;20033;-81
2023/03/03 00:03:54;;;;;;;8.13;4.72;;;5.50;99.90;;;;;;5077372;28;20044;-81
2023/03/03 00:06:20;;;;;;;9.10;4.97;;;5.50;99.90;;;;;;5079319;28;20024;-83
2023/03/03 00:08:46;;;;;;;7.07;4.38;;;5.50;99.90;;;;;;5080494;28;20031;-84
2023/03/03 00:11:12;;;;;;;10.10;5.30;;;5.50;99.90;;;;;;5078452;28;20024;-82
2023/03/03 00:13:46;;;;;;;8.68;4.65;;;5.60;99.90;;;;;;5089489;28;20037;-82
2023/03/03 00:16:21;;;;;;;8.23;4.45;;;5.50;99.90;;;;;;5088420;28;20024;-82
2023/03/03 00:18:48;;;;;;;8.10;4.68;;;5.50;99.90;;;;;;5091164;28;20032;-84
2023/03/03 00:36:37;;;;;;;6.75;4.18;;;5.50;99.90;;;;;;5837154;22;20119;-81
2023/03/03 00:39:28;;;;;;;7.15;4.63;;;5.50;99.90;;;;;;5023988;28;20026;-81
2023/03/03 00:41:54;;;;;;;5.55;3.75;;;5.50;99.90;;;;;;5021191;28;20490;-81
2023/03/03 00:44:40;;;;;;;7.20;4.55;;;5.50;99.90;;;;;;5021771;28;20530;-81
2023/03/03 00:47:28;;;;;;;7.32;4.45;;;5.50;99.90;;;;;;5013654;28;20097;-81
2023/03/03 00:50:10;;;;;;;7.28;4.25;;;5.40;99.90;;;;;;5021568;28;20040;-86
2023/03/03 00:52:46;;;;;;;7.78;4.13;;;5.40;99.90;;;;;;5015379;28;20057;-86
2023/03/03 00:56:00;;;;;;;8.30;4.55;;;5.40;99.90;;;;;;5015377;28;20040;-87
2023/03/03 00:58:46;;;;;;;7.22;3.97;;;5.40;99.90;;;;;;5009976;28;20018;-86
2023/03/03 01:01:25;;;;;;;6.28;3.85;;;5.40;99.90;;;;;;5013530;28;20056;-86
2023/03/03 01:07:12;;;;;;;6.72;3.88;;;5.30;99.90;;;;;;4959655;28;20095;-86
2023/03/03 01:09:57;;;;;;;7.38;4.25;;;5.40;99.90;;;;;;5021692;28;20026;-86
2023/03/03 01:12:23;;;;;;;6.50;3.90;;;5.30;99.90;;;;;;5028580;28;20029;-82
2023/03/03 01:14:53;;;;;;;7.28;4.20;;;5.30;99.90;;;;;;5019968;28;20163;-85
2023/03/03 01:17:19;;;;;;;8.15;5.22;;;5.30;99.90;;;;;;5011267;28;20056;-81
2023/03/03 01:19:44;;;;;;;6.95;4.32;;;5.30;99.90;;;;;;5038707;28;20492;-81
2023/03/03 01:22:10;;;;;;;7.22;4.10;;;5.30;99.90;;;;;;5021078;28;20093;-80
2023/03/03 01:24:36;;;;;;;7.40;4.00;;;5.30;99.90;;;;;;5037337;28;20117;-81
2023/03/03 01:27:01;;;;;;;9.10;4.55;;;5.30;99.90;;;;;;5038376;28;20080;-81
2023/03/03 01:29:27;;;;;;;6.28;4.03;;;5.20;99.90;;;;;;5016893;28;20029;-81
2023/03/03 01:31:53;;;;;;;9.00;4.18;;;5.20;99.90;;;;;;5036647;28;20025;-81
2023/03/03 01:34:18;;;;;;;6.75;3.80;;;5.20;99.90;;;;;;5038531;28;20036;-81
2023/03/03 01:36:44;;;;;;;6.88;4.03;;;5.20;99.90;;;;;;5018472;28;20068;-81
2023/03/03 01:39:10;;;;;;;7.35;4.20;;;5.20;99.90;;;;;;5041946;28;20040;-84
2023/03/03 01:41:36;;;;;;;7.28;4.57;;;5.20;99.90;;;;;;5020642;28;20390;-85
2023/03/03 01:44:02;;;;;;;6.95;3.83;;;5.10;99.90;;;;;;5021066;28;20024;-85
2023/03/03 01:46:49;;;;;;;6.47;4.07;;;5.10;99.90;;;;;;5020516;28;20032;-84
2023/03/03 01:49:23;;;;;;;5.95;3.83;;;5.10;99.90;;;;;;5031066;28;20104;-85
2023/03/03 01:51:56;;;;;;;6.50;3.67;;;5.10;99.90;;;;;;5020666;28;20033;-85
2023/03/03 01:54:28;;;;;;;;;;;5.10;99.90;;;;;;5054312;28;20030;-84
2023/03/03 01:56:59;;;;;;;6.20;3.50;;;5.10;99.90;;;;;;5039902;28;19956;-81
2023/03/03 01:59:31;;;;;;;6.65;3.60;;;5.10;99.90;;;;;;5029614;28;20453;-84
2023/03/03 02:01:57;;;;;;;6.95;3.35;;;5.10;99.90;;;;;;5020443;28;20029;-84
2023/03/03 02:04:25;;;;;;;5.95;3.80;;;5.10;99.90;;;;;;5038039;28;20018;-82
2023/03/03 02:06:58;;;;;;;7.38;3.45;;;5.10;99.90;;;;;;5037848;28;20018;-81
2023/03/03 02:09:41;;;;;;;5.20;3.42;;;5.10;99.90;;;;;;5047041;28;20037;-81
2023/03/03 02:12:13;;;;;;;6.13;3.50;;;5.00;99.90;;;;;;5032816;28;20030;-85
2023/03/03 02:14:39;;;;;;;4.95;3.15;;;5.00;99.90;;;;;;5022002;28;20092;-90
2023/03/03 02:17:05;;;;;;;7.40;3.70;;;5.00;99.90;;;;;;5011433;28;20030;-89
2023/03/03 02:19:58;;;;;;;6.15;3.38;;;5.10;99.90;;;;;;5017513;28;20053;-91
2023/03/03 02:36:35;;;;;;;;;;;;;;;;;;;;;
2023/03/03 02:49:31;;;;;;;5.47;2.50;;;5.00;99.90;;;;;;4923165;29;20035;-84
2023/03/03 02:52:00;;;;;;;5.03;3.13;;;5.00;99.90;;;;;;4918343;29;20414;-85
2023/03/03 02:54:29;;;;;;;7.63;3.45;;;4.90;99.90;;;;;;4980179;28;20096;-79
2023/03/03 02:56:55;;;;;;;5.53;3.33;;;4.90;99.90;;;;;;5014604;28;20029;-80
2023/03/03 02:59:21;;;;;;;6.28;3.10;;;4.90;99.90;;;;;;5036947;28;20092;-80
2023/03/03 03:01:47;;;;;;;4.97;3.25;;;4.90;99.90;;;;;;5037326;28;20476;-82
2023/03/03 03:04:15;;;;;;;5.30;3.10;;;5.00;99.90;;;;;;5033016;28;20026;-81
2023/03/03 03:06:42;;;;;;;5.15;3.20;;;4.90;99.90;;;;;;5008614;28;20488;-80
2023/03/03 03:09:09;;;;;;;5.25;3.45;;;4.90;99.90;;;;;;5047285;28;20025;-81
2023/03/03 03:11:35;;;;;;;5.18;2.95;;;4.90;99.90;;;;;;5036587;28;20033;-81
2023/03/03 03:14:06;;;;;;;6.63;3.60;;;4.90;99.90;;;;;;5018879;28;20163;-81
2023/03/03 03:20:16;;;;;;;5.75;3.17;;;4.90;99.90;;;;;;4944249;28;20042;-81
2023/03/03 03:54:29;;;;;;;4.38;2.90;;;4.70;99.90;;;;;;5110412;23;20106;-81
2023/03/03 03:56:54;;;;;;;7.22;3.67;;;4.70;99.90;;;;;;4945679;29;20035;-81
2023/03/03 03:59:20;;;;;;;4.75;3.28;;;4.70;99.90;;;;;;4945575;29;20392;-80
2023/03/03 04:01:47;;;;;;;4.50;3.15;;;4.80;99.90;;;;;;4945280;29;20078;-80
2023/03/03 04:04:13;;;;;;;7.57;3.97;;;4.70;99.90;;;;;;4942325;28;20031;-77
2023/03/03 04:06:38;;;;;;;7.65;3.78;;;4.70;99.90;;;;;;4950361;29;20027;-80
2023/03/03 04:09:04;;;;;;;7.55;3.67;;;4.70;99.90;;;;;;4962326;29;20395;-80
2023/03/03 04:11:30;;;;;;;7.22;3.75;;;4.70;99.90;;;;;;4962378;28;20031;-81
2023/03/03 04:13:56;;;;;;;6.07;3.55;;;4.70;99.90;;;;;;4945375;29;20051;-80
2023/03/03 04:16:22;;;;;;;6.85;4.28;;;4.70;99.90;;;;;;4961378;28;20031;-79
2023/03/03 04:18:47;;;;;;;6.13;4.05;;;4.70;99.90;;;;;;4958782;29;20031;-81
2023/03/03 04:21:14;;;;;;;7.65;4.30;;;4.70;99.90;;;;;;4944093;29;20500;-83
2023/03/03 04:23:40;;;;;;;7.15;4.15;;;4.70;99.90;;;;;;4942754;28;20027;-83
2023/03/03 04:26:06;;;;;;;6.63;4.00;;;4.70;99.90;;;;;;4959992;29;20055;-83
2023/03/03 04:28:32;;;;;;;8.77;4.10;;;4.70;99.90;;;;;;4961236;28;20015;-83
2023/03/03 04:30:57;;;;;;;10.02;4.97;;;4.70;99.90;;;;;;4954730;28;20035;-83
2023/03/03 04:33:23;;;;;;;8.32;5.03;;;4.60;99.90;;;;;;4962401;28;20037;-83
2023/03/03 04:35:50;;;;;;;8.18;5.20;;;4.60;99.90;;;;;;4961890;29;20031;-83
2023/03/03 04:38:31;;;;;;;9.60;5.45;;;4.60;99.90;;;;;;4944361;29;20031;-83
2023/03/03 04:41:02;;;;;;;10.20;5.75;;;4.60;99.90;;;;;;4950562;29;20031;-85
2023/03/03 04:43:42;;;;;;;8.80;4.97;;;4.50;99.90;;;;;;4944179;29;20122;-85
2023/03/03 04:46:13;;;;;;;9.63;5.10;;;4.50;99.90;;;;;;4933690;29;20032;-85
2023/03/03 05:00:49;;;;;;;6.88;4.28;;;4.50;99.90;;;;;;4871142;29;20032;-85
2023/03/03 05:03:15;;;;;;;9.38;5.35;;;4.40;99.90;;;;;;4871817;29;20052;-81
2023/03/03 05:05:40;;;;;;;10.95;5.70;;;4.40;99.90;;;;;;4936505;28;20039;-82
2023/03/03 05:08:06;;;;;;;10.43;5.47;;;4.40;99.90;;;;;;4944476;28;20030;-81
2023/03/03 05:10:32;;;;;;;9.68;5.30;;;4.40;99.90;;;;;;4960783;29;20024;-81
2023/03/03 05:12:57;;;;;;;8.18;5.65;;;4.30;99.90;;;;;;4953914;28;20050;-79
2023/03/03 05:15:23;;;;;;;10.75;5.85;;;4.30;99.90;;;;;;4954444;29;20125;-80
2023/03/03 05:17:52;;;;;;;11.13;6.10;;;4.30;99.90;;;;;;4961102;28;20450;-83
2023/03/03 05:20:18;;;;;;;9.32;6.10;;;4.30;99.90;;;;;;4943922;29;20019;-83
2023/03/03 05:22:44;;;;;;;10.98;6.70;;;4.20;99.90;;;;;;4961024;28;20023;-83
2023/03/03 05:37:05;;;;;;;10.13;6.38;;;4.10;99.90;;;;;;4987949;23;20108;-82
2023/03/03 05:39:32;;;;;;;14.15;7.35;;;4.10;99.90;;;;;;4944964;29;20099;-82
2023/03/03 05:41:59;;;;;;;9.70;6.00;;;4.10;99.90;;;;;;4958907;29;20024;-82
2023/03/03 05:44:25;;;;;;;12.00;6.63;;;4.10;99.90;;;;;;4956020;29;20042;-81
2023/03/03 05:46:51;;;;;;;11.48;6.47;;;4.10;99.90;;;;;;4930179;29;20028;-81
2023/03/03 05:49:17;;;;;;;11.40;7.47;;;4.10;99.90;;;;;;4938006;29;20115;-82
2023/03/03 06:05:26;;;;;;;12.80;7.32;;;4.00;99.90;;;;;;5510837;23;20056;-77
2023/03/03 06:07:52;;;;;;;10.32;6.80;;;4.00;99.90;;;;;;4944323;28;20039;-79
2023/03/03 06:10:17;;;;;;;11.95;6.95;;;4.00;99.90;;;;;;4951016;28;20113;-79
2023/03/03 06:12:43;;;;;;;13.07;7.57;;;4.00;99.90;;;;;;4956448;28;20077;-79
2023/03/03 06:15:09;;;;;;;13.57;8.20;;;4.00;99.90;;;;;;4952102;28;20044;-80
2023/03/03 06:17:35;;;;;;;12.90;7.18;;;4.00;99.90;;;;;;4937073;29;20024;-80
2023/03/03 06:20:01;;;;;;;13.55;8.07;;;4.00;99.90;;;;;;4952765;29;20027;-82
2023/03/03 06:22:30;;;;;;;15.48;8.05;;;4.00;99.90;;;;;;4934572;29;20069;-87
2023/03/03 06:24:58;;;;;;;14.15;8.18;;;3.90;99.90;;;;;;4940822;29;20102;-84
2023/03/03 06:27:27;;;;;;;13.68;7.57;;;4.00;99.90;;;;;;4932932;28;20035;-86
2023/03/03 06:29:53;;;;;;;14.63;7.97;;;3.90;99.90;;;;;;4951445;29;20087;-88
2023/03/03 06:32:18;;;;;;;14.70;8.90;;;4.00;99.90;;;;;;4935820;28;20039;-88
2023/03/03 06:34:44;;;;;;;14.95;8.43;;;3.90;99.90;;;;;;4942434;28;20086;-85
2023/03/03 06:37:10;;;;;;;16.30;9.23;;;4.00;99.90;;;;;;4943228;28;20046;-84
2023/03/03 06:39:35;;;;;;;17.40;8.60;;;4.00;99.90;;;;;;4947580;28;20036;-84
2023/03/03 06:42:01;;;;;;;15.80;8.73;;;4.00;99.90;;;;;;4939131;29;20047;-85
2023/03/03 06:44:27;;;;;;;16.55;8.75;;;4.00;99.90;;;;;;4944463;29;20031;-86
2023/03/03 06:46:52;;;;;;;17.63;8.88;;;4.00;99.90;;;;;;4959127;29;20066;-81
2023/03/03 06:49:18;;;;;;;17.85;10.23;;;4.00;99.90;;;;;;4945175;29;20058;-82
2023/03/03 06:51:45;;;;;;;19.17;10.63;;;4.00;99.90;;;;;;4959209;29;20027;-81
2023/03/03 06:54:19;;;;;;;14.93;8.85;;;4.00;99.90;;;;;;4953166;29;20051;-81
2023/03/03 06:56:48;;;;;;;17.27;9.85;;;4.00;99.90;;;;;;4953804;29;20459;-80
2023/03/03 06:59:19;;;;;;;17.60;9.98;;;4.00;99.90;;;;;;4959435;29;20039;-80
2023/03/03 07:01:47;;;;;;;19.48;10.13;;;4.00;99.90;;;;;;4958745;29;20491;-81
2023/03/03 07:04:24;;;;;;;18.77;9.98;;;4.00;99.90;;;;;;4959251;29;20023;-81
2023/03/03 07:06:50;;;;;;;18.90;10.80;;;4.00;99.90;;;;;;4942042;29;20396;-82
2023/03/03 07:09:27;;;;;;;18.98;10.60;;;4.00;99.90;;;;;;4950680;29;20027;-82
2023/03/03 07:12:05;;;;;;;17.95;9.40;;;4.00;99.90;;;;;;4934246;29;20066;-83
2023/03/03 07:14:33;;;;;;;16.10;9.10;;;4.00;99.90;;;;;;4957620;29;20059;-84
2023/03/03 07:17:11;;;;;;;18.65;9.95;;;4.10;99.90;;;;;;4956226;29;20031;-86
2023/03/03 07:24:06;;;;;;;17.08;9.45;;;4.10;99.90;;;;;;4950375;28;20035;-84
2023/03/03 07:26:41;;;;;;;14.95;9.05;;;4.10;99.90;;;;;;4919145;29;20027;-84
2023/03/03 07:29:26;;;;;;;16.08;9.57;;;4.10;99.90;;;;;;4958141;29;20432;-85
2023/03/03 07:32:02;;;;;;;17.38;9.50;;;4.20;99.90;;;;;;4952641;28;20027;-85
2023/03/03 07:34:35;;;;;;;17.38;9.93;;;4.20;99.90;;;;;;4940560;28;20079;-84
2023/03/03 07:37:21;;;;;;;16.05;9.35;;;4.20;99.90;;;;;;4938538;29;20094;-86
2023/03/03 07:39:49;;;;;;;19.73;10.85;;;4.20;99.90;;;;;;4953363;29;20416;-85
2023/03/03 07:42:26;;;;;;;16.85;9.55;;;4.30;99.90;;;;;;4940409;29;20035;-81
2023/03/03 07:44:57;;;;;;;18.15;10.38;;;4.30;99.90;;;;;;4940871;29;20038;-80
2023/03/03 07:47:28;;;;;;;17.38;9.68;;;4.30;99.90;;;;;;4961406;28;20019;-80
2023/03/03 07:49:59;;;;;;;18.92;10.38;;;4.30;99.90;;;;;;4945604;29;20024;-80
2023/03/03 07:52:39;;;;;;;20.88;11.50;;;4.30;99.90;;;;;;4958419;29;20059;-80
2023/03/03 07:55:30;;;;;;;17.63;10.07;;;4.40;99.90;;;;;;4941535;29;20023;-80
2023/03/03 07:58:00;;;;;;;17.90;10.18;;;4.40;99.90;;;;;;4937610;29;20392;-80
2023/03/03 08:00:29;;;;;;;17.88;9.88;;;4.50;99.90;;;;;;4951720;29;20074;-80
2023/03/03 08:03:04;;;;;;;18.27;10.85;;;4.50;99.90;;;;;;4958427;29;20027;-81
2023/03/03 08:05:37;;;;;;;19.00;9.60;;;4.50;99.90;;;;;;4958627;28;20143;-79
2023/03/03 08:08:09;;;;;;;17.27;9.80;;;4.50;99.90;;;;;;4938636;29;20032;-79
2023/03/03 08:10:51;;;;;;;15.30;9.45;;;4.50;99.90;;;;;;4955634;29;20023;-78
2023/03/03 08:13:26;;;;;;;15.95;9.07;;;4.50;99.90;;;;;;4933158;29;20582;-79
2023/03/03 08:16:01;;;;;;;16.60;9.30;;;4.60;99.90;;;;;;4958630;29;20024;-79
2023/03/03 08:18:29;;;;;;;16.85;9.23;;;4.60;99.90;;;;;;4938101;28;20027;-79
2023/03/03 08:21:13;;;;;;;17.05;9.38;;;4.70;99.90;;;;;;4956688;29;20035;-79
2023/03/03 08:23:39;;;;;;;17.08;9.68;;;4.70;99.90;;;;;;4957999;29;20082;-79
2023/03/03 08:26:05;;;;;;;19.63;10.85;;;4.70;99.90;;;;;;4961707;29;20488;-80
2023/03/03 08:28:31;;;;;;;18.38;10.10;;;4.80;99.90;;;;;;4962101;29;20023;-79
2023/03/03 08:30:57;;;;;;;18.85;10.95;;;4.90;99.90;;;;;;4944768;29;20069;-80
2023/03/03 08:33:22;;;;;;;20.75;11.00;;;4.90;99.90;;;;;;4962005;28;20024;-79
2023/03/03 08:35:48;;;;;;;19.63;11.40;;;4.90;99.90;;;;;;4944888;29;20051;-79
2023/03/03 08:38:16;;;;;;;22.63;12.23;;;5.00;99.90;;;;;;4953977;29;20027;-79
2023/03/03 08:40:43;;;;;;;19.52;11.52;;;5.10;99.90;;;;;;4961127;29;20114;-80
2023/03/03 08:43:16;;;;;;;19.70;10.95;;;5.10;99.90;;;;;;4953528;29;20031;-84
2023/03/03 08:45:47;;;;;;;19.38;10.68;;;5.30;99.90;;;;;;4935785;29;20046;-83
2023/03/03 08:48:13;;;;;;;18.33;10.23;;;5.30;99.90;;;;;;4943100;29;20127;-83
2023/03/03 08:50:40;;;;;;;19.70;10.48;;;5.40;99.90;;;;;;4959195;29;20034;-83
2023/03/03 08:53:06;;;;;;;17.13;10.23;;;5.50;99.90;;;;;;4959434;29;20038;-82
2023/03/03 08:55:32;;;;;;;19.45;11.02;;;5.50;99.90;;;;;;4959215;29;20027;-82
2023/03/03 08:57:58;;;;;;;19.63;11.07;;;5.50;99.90;;;;;;4960764;29;20067;-83
2023/03/03 09:00:31;;;;;;;20.30;10.63;;;5.50;99.90;;;;;;4959496;29;20058;-83
2023/03/03 09:02:57;;;;;;;21.10;10.70;;;5.60;99.90;;;;;;4943003;29;20031;-80
2023/03/03 09:05:24;;;;;;;18.48;10.18;;;5.60;99.90;;;;;;4960930;28;20047;-81
2023/03/03 09:07:53;;;;;;;19.88;10.13;;;5.60;99.90;;;;;;4943270;29;20093;-81
2023/03/03 09:11:12;;;;;;;;;;;;;;;;;;;;;
2023/03/03 09:14:11;;;;;;;20.27;11.38;;;5.70;99.90;;;;;;4956974;29;20130;-83
2023/03/03 09:17:01;;;;;;;18.52;10.45;;;5.70;99.90;;;;;;4953245;29;20037;-80
2023/03/03 09:19:31;;;;;;;15.90;9.32;;;5.70;99.90;;;;;;4943126;29;20023;-81
2023/03/03 09:22:10;;;;;;;18.45;9.73;;;5.80;99.90;;;;;;4959794;29;20031;-82
2023/03/03 09:24:36;;;;;;;18.13;9.63;;;5.80;99.90;;;;;;4956092;29;20019;-82
2023/03/03 09:27:11;;;;;;;16.42;9.98;;;6.00;99.90;;;;;;4959440;29;20015;-82
2023/03/03 09:29:37;;;;;;;17.45;9.68;;;6.00;99.90;;;;;;4954572;28;20141;-83
2023/03/03 09:32:29;;;;;;;17.90;9.65;;;6.10;99.90;;;;;;4956074;28;20403;-83
2023/03/03 09:34:54;;;;;;;16.73;9.70;;;6.20;99.90;;;;;;4949777;29;20453;-81
2023/03/03 09:37:26;;;;;;;17.10;9.98;;;6.40;99.90;;;;;;4952294;29;20053;-68
2023/03/03 09:39:54;;;;;;;18.40;10.77;;;6.40;99.90;;;;;;4957720;29;20039;-69
2023/03/03 09:42:43;;;;;;;17.50;10.07;;;6.50;99.90;;;;;;4960349;29;20062;-68
2023/03/03 09:45:31;;;;;;;18.67;10.52;;;6.60;99.90;;;;;;4942472;29;20050;-68
2023/03/03 09:48:32;;;;;;;17.30;9.82;;;6.60;99.90;;;;;;4950659;28;20503;-69
2023/03/03 09:51:23;;;;;;;15.15;9.20;;;6.70;99.90;;;;;;4896123;28;20075;-69
2023/03/03 09:54:50;;;;;;;18.65;10.90;;;6.70;99.90;;;;;;4946398;29;20541;-69
2023/03/03 09:57:28;;;;;;;15.38;9.40;;;6.70;99.90;;;;;;4861736;29;20120;-69
2023/03/03 10:00:35;;;;;;;15.63;9.55;;;6.70;99.90;;;;;;4948527;29;20480;-70
2023/03/03 10:03:08;;;;;;;16.40;10.02;;;6.70;99.90;;;;;;4938492;29;20035;-73
2023/03/03 10:05:54;;;;;;;19.48;10.63;;;6.70;99.90;;;;;;4956305;29;20055;-72
2023/03/03 10:08:57;;;;;;;17.50;9.60;;;6.60;99.90;;;;;;4956921;28;20059;-72
2023/03/03 10:11:27;;;;;;;14.27;8.90;;;6.60;99.90;;;;;;4927615;28;20044;-72
2023/03/03 10:13:53;;;;;;;15.50;9.45;;;6.60;99.90;;;;;;4957257;29;20146;-73
2023/03/03 10:16:38;;;;;;;15.75;9.05;;;6.60;99.90;;;;;;4951722;28;20059;-73
2023/03/03 10:19:33;;;;;;;16.23;9.27;;;6.70;99.90;;;;;;4949459;29;20121;-73
2023/03/03 10:22:19;;;;;;;;;;;6.70;99.90;;;;;;4940158;29;20027;-73
2023/03/03 10:25:02;;;;;;;13.02;7.70;;;6.70;99.90;;;;;;4933957;29;20001;-73
2023/03/03 10:27:50;;;;;;;12.40;7.32;;;6.80;99.90;;;;;;4931233;29;20039;-73
2023/03/03 10:30:42;;;;;;;15.65;9.23;;;6.90;99.90;;;;;;4938258;29;20023;-74
2023/03/03 10:33:41;;;;;;;15.32;8.52;;;7.00;99.90;;;;;;4940177;29;20233;-73
2023/03/03 10:36:13;;;;;;;13.73;8.02;;;7.00;99.90;;;;;;4942243;28;20027;-71
2023/03/03 10:39:14;;;;;;;15.07;8.35;;;7.00;99.90;;;;;;4940450;29;20062;-73
2023/03/03 10:42:06;;;;;;;14.40;8.80;;;6.90;99.90;;;;;;4924363;28;20043;-73
2023/03/03 10:45:04;;;;;;;14.93;8.63;;;6.90;99.90;;;;;;4945499;29;20536;-73
2023/03/03 10:47:54;;;;;;;14.43;8.23;;;6.90;99.90;;;;;;4956491;28;20117;-73
2023/03/03 10:50:30;;;;;;;15.57;9.15;;;6.90;99.90;;;;;;4940759;29;20031;-69
2023/03/03 10:53:22;;;;;;;11.88;7.88;;;7.00;99.90;;;;;;4941258;29;20043;-73
2023/03/03 10:56:42;;;;;;;15.80;9.35;;;7.00;99.90;;;;;;4941853;29;20093;-69
2023/03/03 10:59:35;;;;;;;12.40;7.30;;;7.00;99.90;;;;;;4884428;29;20576;-68
2023/03/03 11:02:10;;;;;;;13.88;8.57;;;7.10;99.90;;;;;;4951597;29;20106;-71
2023/03/03 11:04:44;;;;;;;15.27;8.15;;;7.10;99.90;;;;;;4956866;28;20098;-70
2023/03/03 11:07:33;;;;;;;12.50;8.02;;;7.10;99.90;;;;;;4959151;29;20027;-68
2023/03/03 11:10:19;;;;;;;13.20;8.00;;;7.20;99.90;;;;;;4929394;29;20464;-70
2023/03/03 11:12:52;;;;;;;13.98;8.50;;;7.20;99.90;;;;;;4948590;29;20027;-68
2023/03/03 11:15:38;;;;;;;13.63;8.07;;;7.20;99.90;;;;;;4959049;29;20023;-69
2023/03/03 11:18:03;;;;;;;12.07;7.57;;;7.30;99.90;;;;;;4958966;29;20067;-71
2023/03/03 11:20:48;;;;;;;13.15;7.63;;;7.40;99.90;;;;;;4941626;29;20500;-69
2023/03/03 11:23:44;;;;;;;13.80;7.93;;;7.40;99.90;;;;;;4958918;29;20031;-75
2023/03/03 11:26:10;;;;;;;12.77;7.45;;;7.50;99.90;;;;;;4952078;29;20098;-74
2023/03/03 11:28:54;;;;;;;13.93;7.47;;;7.60;99.90;;;;;;4953841;28;20091;-71
2023/03/03 11:31:34;;;;;;;13.75;7.78;;;7.70;99.90;;;;;;4956281;28;20032;-73
2023/03/03 11:34:31;;;;;;;15.15;8.43;;;7.70;99.90;;;;;;4956238;29;20082;-76
2023/03/03 11:37:20;;;;;;;12.93;7.03;;;7.80;99.90;;;;;;4949184;29;20065;-74
2023/03/03 11:39:48;;;;;;;13.18;7.28;;;7.80;99.90;;;;;;4951333;28;20433;-78
2023/03/03 11:42:27;;;;;;;12.82;7.38;;;7.80;99.90;;;;;;4952114;28;20151;-75
2023/03/03 11:44:59;;;;;;;10.43;6.75;;;7.90;99.90;;;;;;4953530;28;20023;-81
2023/03/03 11:47:59;;;;;;;11.13;6.75;;;7.90;99.90;;;;;;4967863;28;20566;-76
2023/03/03 11:50:59;;;;;;;10.38;6.32;;;7.90;99.90;;;;;;4933145;29;20082;-78
2023/03/03 11:53:53;;;;;;;12.73;7.13;;;7.90;99.90;;;;;;4958305;28;20055;-75
2023/03/03 11:56:24;;;;;;;11.20;6.82;;;8.00;99.90;;;;;;4923147;29;20095;-77
2023/03/03 11:59:01;;;;;;;12.38;7.28;;;8.00;99.90;;;;;;4955975;29;20066;-79
2023/03/03 12:01:35;;;;;;;12.75;8.05;;;8.00;99.90;;;;;;4934270;29;20119;-76
2023/03/03 12:04:07;;;;;;;12.75;7.28;;;8.10;99.90;;;;;;4961999;29;20051;-79
2023/03/03 12:06:48;;;;;;;14.23;8.25;;;8.20;99.90;;;;;;4941424;29;20055;-80
2023/03/03 12:09:28;;;;;;;10.38;6.70;;;8.20;99.90;;;;;;4943516;29;20031;-77
2023/03/03 12:12:11;;;;;;;12.60;7.68;;;8.20;99.90;;;;;;4944295;29;20403;-77
2023/03/03 12:14:52;;;;;;;13.13;6.65;;;8.20;99.90;;;;;;4941305;29;20055;-77
2023/03/03 12:17:39;;;;;;;11.55;6.85;;;8.30;99.90;;;;;;4957373;29;20047;-77
2023/03/03 12:20:25;;;;;;;9.98;6.13;;;8.30;99.90;;;;;;4960549;29;20106;-78
2023/03/03 12:23:21;;;;;;;10.45;6.63;;;8.30;99.90;;;;;;4961727;29;20039;-80
2023/03/03 12:25:55;;;;;;;10.27;6.20;;;8.30;99.90;;;;;;4955990;29;20027;-79
2023/03/03 12:28:26;;;;;;;9.77;6.63;;;8.40;99.90;;;;;;4961703;29;20030;-80
2023/03/03 12:31:25;;;;;;;12.40;7.05;;;8.50;99.90;;;;;;4955580;29;20023;-79
2023/03/03 12:33:52;;;;;;;10.02;7.03;;;8.40;99.90;;;;;;4928566;29;20107;-77
2023/03/03 12:36:39;;;;;;;11.27;6.75;;;8.60;99.90;;;;;;4958997;29;20019;-73
2023/03/03 12:39:16;;;;;;;9.15;6.13;;;8.60;99.90;;;;;;4936766;29;20024;-76
2023/03/03 12:41:50;;;;;;;9.20;6.72;;;8.60;99.90;;;;;;4941566;29;20122;-79
2023/03/03 12:44:50;;;;;;;12.07;6.15;;;8.70;99.90;;;;;;4944125;28;20440;-77
2023/03/03 12:47:35;;;;;;;7.70;5.20;;;8.70;99.90;;;;;;4951615;28;20408;-81
2023/03/03 12:50:07;;;;;;;9.32;5.78;;;8.70;99.90;;;;;;4939075;29;20031;-81
2023/03/03 12:52:51;;;;;;;10.60;6.90;;;8.70;99.90;;;;;;4943400;29;20110;-79
2023/03/03 12:55:23;;;;;;;11.75;8.70;;;8.90;99.90;;;;;;4961427;29;20555;-78
2023/03/03 12:58:03;;;;;;;9.05;6.40;;;8.90;99.90;;;;;;4944115;29;20027;-76
2023/03/03 13:00:55;;;;;;;10.60;7.07;;;8.90;99.90;;;;;;4958629;28;20094;-76
2023/03/03 13:03:55;;;;;;;10.45;6.15;;;8.90;99.90;;;;;;4932714;29;20031;-76
2023/03/03 13:06:47;;;;;;;8.07;6.05;;;9.00;99.90;;;;;;4942846;29;20464;-76
2023/03/03 13:09:33;;;;;;;7.97;5.55;;;9.00;99.90;;;;;;4959424;29;20037;-78
2023/03/03 13:12:11;;;;;;;9.02;5.82;;;9.00;99.90;;;;;;4942475;29;20079;-77
2023/03/03 13:15:06;;;;;;;10.00;6.30;;;9.10;99.90;;;;;;4960698;29;20058;-81
2023/03/03 13:17:57;;;;;;;8.60;5.72;;;9.20;99.90;;;;;;4931362;29;20039;-79
2023/03/03 13:20:47;;;;;;;7.55;5.28;;;9.20;99.90;;;;;;4959576;29;20067;-77
2023/03/03 13:23:18;;;;;;;8.18;5.18;;;9.20;99.90;;;;;;4943215;29;20534;-75
2023/03/03 13:26:14;;;;;;;8.02;5.90;;;9.20;99.90;;;;;;4943721;29;20412;-75
2023/03/03 13:29:00;;;;;;;7.28;4.72;;;9.30;99.90;;;;;;4960972;29;20027;-75
2023/03/03 13:31:39;;;;;;;8.75;5.43;;;9.30;99.90;;;;;;4943609;28;20031;-78
2023/03/03 13:34:31;;;;;;;9.32;5.60;;;9.40;99.90;;;;;;4960969;29;20035;-80
2023/03/03 13:37:20;;;;;;;8.88;5.40;;;9.40;98.10;;;;;;4946788;29;20035;-79
2023/03/03 13:40:07;;;;;;;8.35;5.20;;;9.40;99.90;;;;;;4960698;29;20031;-79
2023/03/03 13:42:51;;;;;;;7.63;5.13;;;9.40;99.40;;;;;;4938271;29;20385;-79
2023/03/03 13:45:30;;;;;;;6.68;5.00;;;9.50;99.90;;;;;;4961059;29;20031;-80
2023/03/03 13:48:20;;;;;;;6.32;4.40;;;9.50;99.00;;;;;;4959505;29;20534;-79
2023/03/03 13:51:11;;;;;;;7.95;5.47;;;9.50;99.90;;;;;;4937591;29;20086;-79
2023/03/03 13:53:59;;;;;;;10.50;6.00;;;9.60;99.90;;;;;;4952537;29;20031;-79
2023/03/03 13:56:52;;;;;;;8.30;5.35;;;9.70;99.90;;;;;;4942669;29;20118;-75
2023/03/03 13:59:54;;;;;;;9.38;6.13;;;9.70;98.90;;;;;;4958520;29;20023;-89
2023/03/03 14:02:28;;;;;;;7.28;4.97;;;9.70;99.10;;;;;;4942393;29;20034;-85
2023/03/03 14:05:04;;;;;;;9.10;5.93;;;9.80;98.70;;;;;;4942410;29;20301;-84
2023/03/03 14:07:55;;;;;;;8.77;5.93;;;9.70;98.30;;;;;;4959611;29;20051;-82
2023/03/03 14:10:24;;;;;;;9.63;6.00;;;9.80;98.40;;;;;;4955486;29;20019;-83
2023/03/03 14:13:03;;;;;;;9.77;6.57;;;9.80;97.50;;;;;;4960077;29;20039;-86
2023/03/03 14:15:31;;;;;;;10.00;6.38;;;9.90;96.90;;;;;;4957741;28;20023;-78
2023/03/03 14:18:10;;;;;;;9.02;6.03;;;10.00;95.90;;;;;;4941877;29;20031;-78
2023/03/03 14:20:47;;;;;;;10.25;6.18;;;10.00;96.50;;;;;;4957618;29;20427;-80
2023/03/03 14:23:16;;;;;;;8.95;6.22;;;10.00;96.00;;;;;;4959920;29;20027;-78
2023/03/03 14:26:02;;;;;;;10.25;6.90;;;10.00;96.00;;;;;;4959671;29;20030;-76
2023/03/03 14:28:40;;;;;;;8.80;6.18;;;10.00;97.10;;;;;;4958604;29;20059;-77
2023/03/03 14:31:27;;;;;;;9.15;6.72;;;10.10;97.10;;;;;;4959801;29;20035;-79
2023/03/03 14:33:56;;;;;;;9.05;6.00;;;10.10;96.90;;;;;;4948973;29;20039;-79
2023/03/03 14:36:37;;;;;;;9.13;6.07;;;10.10;96.10;;;;;;4959837;29;20035;-80
2023/03/03 14:39:28;;;;;;;10.05;5.95;;;10.20;96.00;;;;;;4958146;29;20032;-78
2023/03/03 14:41:56;;;;;;;11.70;6.75;;;10.20;95.60;;;;;;4947894;29;20039;-79
2023/03/03 14:44:28;;;;;;;10.63;7.13;;;10.20;92.40;;;;;;4959642;29;20023;-78
2023/03/03 14:47:11;;;;;;;8.82;6.20;;;10.30;91.60;;;;;;4941527;29;20039;-81
2023/03/03 14:49:38;;;;;;;9.30;6.72;;;10.20;94.70;;;;;;4955638;29;20024;-79
2023/03/03 14:52:17;;;;;;;8.38;6.13;;;10.30;90.80;;;;;;4959703;29;20037;-78
2023/03/03 14:54:47;;;;;;;6.82;4.72;;;10.30;93.10;;;;;;4941722;29;20523;-86
2023/03/03 14:57:47;;;;;;;7.53;5.57;;;10.30;92.90;;;;;;4929738;29;20030;-87
2023/03/03 15:00:13;;;;;;;9.40;5.60;;;10.30;92.20;;;;;;4937993;29;20114;-85
2023/03/03 15:02:51;;;;;;;8.43;5.13;;;10.30;90.00;;;;;;4954285;29;20106;-85
2023/03/03 15:05:28;;;;;;;7.35;5.53;;;10.40;92.90;;;;;;4939208;29;20516;-82
2023/03/03 15:08:03;;;;;;;8.35;5.18;;;10.40;90.10;;;;;;4957371;29;20031;-85
2023/03/03 15:10:35;;;;;;;8.60;5.40;;;10.40;92.10;;;;;;4938354;29;20025;-84
2023/03/03 15:13:32;;;;;;;7.40;4.88;;;10.40;92.00;;;;;;4933531;29;20403;-85
2023/03/03 15:15:58;;;;;;;7.47;4.75;;;10.40;93.20;;;;;;4930129;29;20151;-79
2023/03/03 15:18:24;;;;;;;6.63;4.65;;;10.40;87.50;;;;;;4958551;29;20059;-78
2023/03/03 15:21:07;;;;;;;7.28;4.45;;;10.40;90.20;;;;;;4939190;29;20024;-77
2023/03/03 15:23:41;;;;;;;6.75;4.35;;;10.40;91.10;;;;;;4940404;29;20095;-78
2023/03/03 15:26:36;;;;;;;6.30;4.35;;;10.40;86.40;;;;;;4956497;28;20510;-81
2023/03/03 15:29:01;;;;;;;5.82;4.07;;;10.40;91.70;;;;;;4948888;29;20024;-82
2023/03/03 15:31:43;;;;;;;6.82;4.68;;;10.50;84.70;;;;;;4953637;28;20039;-80
2023/03/03 15:34:58;;;;;;;5.95;4.07;;;10.50;82.60;;;;;;4954122;29;20500;-78
2023/03/03 15:37:48;;;;;;;6.00;3.65;;;10.60;85.90;;;;;;4940692;29;20173;-84
2023/03/03 15:40:50;;;;;;;4.95;3.28;;;10.60;85.10;;;;;;4936199;29;20039;-84